sensor_id;sensor_type;location;lat;lon;timestamp;temperature;humidity
49731;DHT22;35622;52.008;5.426;2023-06-22T00:00:58;19.50;59.10
49731;DHT22;35622;52.008;5.426;2023-06-22T00:03:24;19.40;59.10
49731;DHT22;35622;52.008;5.426;2023-06-22T00:05:51;19.40;59.20
49731;DHT22;35622;52.008;5.426;2023-06-22T00:08:17;19.30;59.30
49731;DHT22;35622;52.008;5.426;2023-06-22T00:10:43;19.30;59.50
49731;DHT22;35622;52.008;5.426;2023-06-22T00:13:10;19.20;59.60
49731;DHT22;35622;52.008;5.426;2023-06-22T00:15:37;19.10;59.70
49731;DHT22;35622;52.008;5.426;2023-06-22T00:18:08;19.10;59.80
49731;DHT22;35622;52.008;5.426;2023-06-22T00:20:34;19.00;60.00
49731;DHT22;35622;52.008;5.426;2023-06-22T00:23:03;19.00;60.20
49731;DHT22;35622;52.008;5.426;2023-06-22T00:25:36;19.00;60.30
49731;DHT22;35622;52.008;5.426;2023-06-22T00:28:03;18.90;60.50
49731;DHT22;35622;52.008;5.426;2023-06-22T00:30:29;18.80;60.60
49731;DHT22;35622;52.008;5.426;2023-06-22T00:32:55;18.80;60.80
49731;DHT22;35622;52.008;5.426;2023-06-22T00:35:21;18.80;61.90
49731;DHT22;35622;52.008;5.426;2023-06-22T00:37:47;18.70;61.00
49731;DHT22;35622;52.008;5.426;2023-06-22T00:40:12;18.70;61.20
49731;DHT22;35622;52.008;5.426;2023-06-22T00:42:38;18.70;61.30
49731;DHT22;35622;52.008;5.426;2023-06-22T00:45:05;18.60;61.50
49731;DHT22;35622;52.008;5.426;2023-06-22T00:47:31;18.60;61.60
49731;DHT22;35622;52.008;5.426;2023-06-22T00:49:58;18.60;61.70
49731;DHT22;35622;52.008;5.426;2023-06-22T00:52:24;18.60;61.70
49731;DHT22;35622;52.008;5.426;2023-06-22T00:54:55;18.50;61.80
49731;DHT22;35622;52.008;5.426;2023-06-22T00:57:22;18.50;61.80
49731;DHT22;35622;52.008;5.426;2023-06-22T00:59:48;18.40;61.80
49731;DHT22;35622;52.008;5.426;2023-06-22T01:02:14;18.40;61.90
49731;DHT22;35622;52.008;5.426;2023-06-22T01:04:40;18.40;62.00
49731;DHT22;35622;52.008;5.426;2023-06-22T01:07:21;18.40;62.20
49731;DHT22;35622;52.008;5.426;2023-06-22T01:12:27;18.30;62.10
49731;DHT22;35622;52.008;5.426;2023-06-22T01:15:06;18.30;62.20
49731;DHT22;35622;52.008;5.426;2023-06-22T01:17:34;18.30;62.30
49731;DHT22;35622;52.008;5.426;2023-06-22T01:20:01;18.20;62.40
49731;DHT22;35622;52.008;5.426;2023-06-22T01:22:31;18.10;62.60
49731;DHT22;35622;52.008;5.426;2023-06-22T01:25:11;18.10;62.80
49731;DHT22;35622;52.008;5.426;2023-06-22T01:27:58;18.10;63.00
49731;DHT22;35622;52.008;5.426;2023-06-22T01:30:30;18.10;63.10
49731;DHT22;35622;52.008;5.426;2023-06-22T01:32:57;18.00;63.10
49731;DHT22;35622;52.008;5.426;2023-06-22T01:35:24;18.00;63.10
49731;DHT22;35622;52.008;5.426;2023-06-22T01:37:50;18.00;63.30
49731;DHT22;35622;52.008;5.426;2023-06-22T01:40:16;17.90;63.40
49731;DHT22;35622;52.008;5.426;2023-06-22T01:42:43;17.90;63.50
49731;DHT22;35622;52.008;5.426;2023-06-22T01:45:10;17.90;63.60
49731;DHT22;35622;52.008;5.426;2023-06-22T01:47:36;17.90;63.80
49731;DHT22;35622;52.008;5.426;2023-06-22T01:50:03;17.90;63.80
49731;DHT22;35622;52.008;5.426;2023-06-22T01:52:29;17.80;63.80
49731;DHT22;35622;52.008;5.426;2023-06-22T01:54:54;17.80;63.90
49731;DHT22;35622;52.008;5.426;2023-06-22T01:57:20;17.70;63.90
49731;DHT22;35622;52.008;5.426;2023-06-22T02:00:12;17.70;64.10
49731;DHT22;35622;52.008;5.426;2023-06-22T02:03:18;17.80;64.30
49731;DHT22;35622;52.008;5.426;2023-06-22T02:05:56;17.80;64.30
49731;DHT22;35622;52.008;5.426;2023-06-22T02:08:27;17.70;64.20
49731;DHT22;35622;52.008;5.426;2023-06-22T02:10:54;17.70;64.00
49731;DHT22;35622;52.008;5.426;2023-06-22T02:13:21;17.70;64.00
49731;DHT22;35622;52.008;5.426;2023-06-22T02:15:47;17.70;64.10
49731;DHT22;35622;52.008;5.426;2023-06-22T02:18:13;17.70;64.20
49731;DHT22;35622;52.008;5.426;2023-06-22T02:20:39;17.60;64.00
49731;DHT22;35622;52.008;5.426;2023-06-22T02:23:06;17.60;64.00
49731;DHT22;35622;52.008;5.426;2023-06-22T02:25:32;17.60;64.20
49731;DHT22;35622;52.008;5.426;2023-06-22T02:27:58;17.50;64.10
49731;DHT22;35622;52.008;5.426;2023-06-22T02:30:24;17.50;64.20
49731;DHT22;35622;52.008;5.426;2023-06-22T02:32:49;17.50;64.90
49731;DHT22;35622;52.008;5.426;2023-06-22T02:35:27;17.50;64.20
49731;DHT22;35622;52.008;5.426;2023-06-22T02:37:57;17.40;64.20
49731;DHT22;35622;52.008;5.426;2023-06-22T02:40:23;17.40;64.30
49731;DHT22;35622;52.008;5.426;2023-06-22T02:42:48;17.30;64.20
49731;DHT22;35622;52.008;5.426;2023-06-22T02:45:14;17.30;65.10
49731;DHT22;35622;52.008;5.426;2023-06-22T02:47:39;17.30;64.30
49731;DHT22;35622;52.008;5.426;2023-06-22T02:50:05;17.30;64.40
49731;DHT22;35622;52.008;5.426;2023-06-22T02:52:31;17.20;64.40
49731;DHT22;35622;52.008;5.426;2023-06-22T02:54:56;17.20;64.50
49731;DHT22;35622;52.008;5.426;2023-06-22T02:57:22;17.20;64.50
49731;DHT22;35622;52.008;5.426;2023-06-22T02:59:47;17.20;64.50
49731;DHT22;35622;52.008;5.426;2023-06-22T03:02:13;17.10;64.40
49731;DHT22;35622;52.008;5.426;2023-06-22T03:04:38;17.10;64.50
49731;DHT22;35622;52.008;5.426;2023-06-22T03:07:04;17.10;64.50
49731;DHT22;35622;52.008;5.426;2023-06-22T03:09:30;17.10;64.70
49731;DHT22;35622;52.008;5.426;2023-06-22T03:11:56;17.10;64.70
49731;DHT22;35622;52.008;5.426;2023-06-22T03:14:22;17.00;64.60
49731;DHT22;35622;52.008;5.426;2023-06-22T03:16:47;17.00;64.60
49731;DHT22;35622;52.008;5.426;2023-06-22T03:19:13;16.90;64.50
49731;DHT22;35622;52.008;5.426;2023-06-22T03:21:39;16.90;64.60
49731;DHT22;35622;52.008;5.426;2023-06-22T03:24:05;16.90;64.70
49731;DHT22;35622;52.008;5.426;2023-06-22T03:26:31;16.90;64.80
49731;DHT22;35622;52.008;5.426;2023-06-22T03:28:57;16.80;64.80
49731;DHT22;35622;52.008;5.426;2023-06-22T03:31:22;16.80;64.90
49731;DHT22;35622;52.008;5.426;2023-06-22T03:33:49;16.80;65.00
49731;DHT22;35622;52.008;5.426;2023-06-22T03:36:15;16.80;65.00
49731;DHT22;35622;52.008;5.426;2023-06-22T03:38:48;16.80;65.10
49731;DHT22;35622;52.008;5.426;2023-06-22T03:41:14;16.70;65.00
49731;DHT22;35622;52.008;5.426;2023-06-22T03:43:40;16.70;65.20
49731;DHT22;35622;52.008;5.426;2023-06-22T03:46:05;16.70;65.20
49731;DHT22;35622;52.008;5.426;2023-06-22T03:48:31;16.70;65.20
49731;DHT22;35622;52.008;5.426;2023-06-22T03:50:57;16.70;65.10
49731;DHT22;35622;52.008;5.426;2023-06-22T03:53:22;16.70;65.20
49731;DHT22;35622;52.008;5.426;2023-06-22T03:55:52;16.70;65.20
49731;DHT22;35622;52.008;5.426;2023-06-22T03:58:18;16.70;65.30
49731;DHT22;35622;52.008;5.426;2023-06-22T04:00:49;16.60;65.30
49731;DHT22;35622;52.008;5.426;2023-06-22T04:03:15;16.60;65.40
49731;DHT22;35622;52.008;5.426;2023-06-22T04:05:41;16.60;65.60
49731;DHT22;35622;52.008;5.426;2023-06-22T04:08:07;16.70;65.80
49731;DHT22;35622;52.008;5.426;2023-06-22T04:10:33;16.70;65.90
49731;DHT22;35622;52.008;5.426;2023-06-22T04:13:00;16.80;66.00
49731;DHT22;35622;52.008;5.426;2023-06-22T04:15:26;16.80;66.00
49731;DHT22;35622;52.008;5.426;2023-06-22T04:17:52;16.90;66.20
49731;DHT22;35622;52.008;5.426;2023-06-22T04:20:17;16.90;66.10
49731;DHT22;35622;52.008;5.426;2023-06-22T04:22:43;17.10;66.20
49731;DHT22;35622;52.008;5.426;2023-06-22T04:25:08;17.10;66.20
49731;DHT22;35622;52.008;5.426;2023-06-22T04:27:34;17.30;66.30
49731;DHT22;35622;52.008;5.426;2023-06-22T04:30:03;17.30;66.20
49731;DHT22;35622;52.008;5.426;2023-06-22T04:32:29;17.40;66.10
49731;DHT22;35622;52.008;5.426;2023-06-22T04:34:54;17.50;66.10
49731;DHT22;35622;52.008;5.426;2023-06-22T04:37:20;17.60;66.10
49731;DHT22;35622;52.008;5.426;2023-06-22T04:39:49;17.70;66.10
49731;DHT22;35622;52.008;5.426;2023-06-22T04:42:14;17.90;66.10
49731;DHT22;35622;52.008;5.426;2023-06-22T04:44:41;18.10;66.10
49731;DHT22;35622;52.008;5.426;2023-06-22T04:47:08;18.30;65.90
49731;DHT22;35622;52.008;5.426;2023-06-22T04:49:36;18.50;65.60
49731;DHT22;35622;52.008;5.426;2023-06-22T04:52:04;18.60;65.20
49731;DHT22;35622;52.008;5.426;2023-06-22T04:54:30;18.70;65.00
49731;DHT22;35622;52.008;5.426;2023-06-22T04:57:03;18.90;64.70
49731;DHT22;35622;52.008;5.426;2023-06-22T04:59:30;19.00;64.50
49731;DHT22;35622;52.008;5.426;2023-06-22T05:01:57;19.20;65.20
49731;DHT22;35622;52.008;5.426;2023-06-22T05:04:24;19.40;64.10
49731;DHT22;35622;52.008;5.426;2023-06-22T05:06:51;19.40;63.70
49731;DHT22;35622;52.008;5.426;2023-06-22T05:09:16;19.60;63.70
49731;DHT22;35622;52.008;5.426;2023-06-22T05:11:46;19.80;63.60
49731;DHT22;35622;52.008;5.426;2023-06-22T05:14:12;20.10;63.50
49731;DHT22;35622;52.008;5.426;2023-06-22T05:16:38;20.30;63.10
49731;DHT22;35622;52.008;5.426;2023-06-22T05:19:04;20.50;62.80
49731;DHT22;35622;52.008;5.426;2023-06-22T05:21:30;20.80;62.40
49731;DHT22;35622;52.008;5.426;2023-06-22T05:23:57;21.10;61.80
49731;DHT22;35622;52.008;5.426;2023-06-22T05:26:32;21.50;61.50
49731;DHT22;35622;52.008;5.426;2023-06-22T05:28:58;21.70;60.40
49731;DHT22;35622;52.008;5.426;2023-06-22T05:31:24;21.80;59.70
49731;DHT22;35622;52.008;5.426;2023-06-22T05:33:52;21.90;59.20
49731;DHT22;35622;52.008;5.426;2023-06-22T05:36:33;22.00;58.80
49731;DHT22;35622;52.008;5.426;2023-06-22T05:38:59;22.10;58.50
49731;DHT22;35622;52.008;5.426;2023-06-22T05:41:24;22.20;58.30
49731;DHT22;35622;52.008;5.426;2023-06-22T05:43:50;22.40;58.20
49731;DHT22;35622;52.008;5.426;2023-06-22T05:46:16;22.60;58.10
49731;DHT22;35622;52.008;5.426;2023-06-22T05:48:42;22.80;58.10
49731;DHT22;35622;52.008;5.426;2023-06-22T05:51:07;23.00;58.10
49731;DHT22;35622;52.008;5.426;2023-06-22T05:53:33;23.20;58.30
49731;DHT22;35622;52.008;5.426;2023-06-22T05:55:58;23.50;58.30
49731;DHT22;35622;52.008;5.426;2023-06-22T05:58:24;23.90;58.20
49731;DHT22;35622;52.008;5.426;2023-06-22T06:00:49;24.20;57.80
49731;DHT22;35622;52.008;5.426;2023-06-22T06:03:23;24.70;57.30
49731;DHT22;35622;52.008;5.426;2023-06-22T06:05:48;25.10;56.50
49731;DHT22;35622;52.008;5.426;2023-06-22T06:08:14;25.30;55.70
49731;DHT22;35622;52.008;5.426;2023-06-22T06:10:40;25.60;55.20
49731;DHT22;35622;52.008;5.426;2023-06-22T06:13:05;26.00;54.90
49731;DHT22;35622;52.008;5.426;2023-06-22T06:15:32;26.80;53.90
49731;DHT22;35622;52.008;5.426;2023-06-22T06:17:57;28.00;52.40
49731;DHT22;35622;52.008;5.426;2023-06-22T06:20:24;29.40;50.00
49731;DHT22;35622;52.008;5.426;2023-06-22T06:22:50;30.90;47.40
49731;DHT22;35622;52.008;5.426;2023-06-22T06:25:16;32.00;43.90
49731;DHT22;35622;52.008;5.426;2023-06-22T06:27:49;32.70;41.10
49731;DHT22;35622;52.008;5.426;2023-06-22T06:30:16;33.30;39.20
49731;DHT22;35622;52.008;5.426;2023-06-22T06:32:42;34.10;37.60
49731;DHT22;35622;52.008;5.426;2023-06-22T06:35:11;34.50;35.70
49731;DHT22;35622;52.008;5.426;2023-06-22T06:37:38;35.10;35.00
49731;DHT22;35622;52.008;5.426;2023-06-22T06:40:06;36.20;32.90
49731;DHT22;35622;52.008;5.426;2023-06-22T06:42:39;36.60;30.70
49731;DHT22;35622;52.008;5.426;2023-06-22T06:45:19;37.00;30.00
49731;DHT22;35622;52.008;5.426;2023-06-22T06:47:45;37.30;29.30
49731;DHT22;35622;52.008;5.426;2023-06-22T06:50:11;37.30;29.00
49731;DHT22;35622;52.008;5.426;2023-06-22T06:52:36;36.90;28.50
49731;DHT22;35622;52.008;5.426;2023-06-22T06:55:03;36.20;29.40
49731;DHT22;35622;52.008;5.426;2023-06-22T06:57:33;36.30;30.10
49731;DHT22;35622;52.008;5.426;2023-06-22T06:59:59;36.40;29.70
49731;DHT22;35622;52.008;5.426;2023-06-22T07:02:26;36.30;29.60
49731;DHT22;35622;52.008;5.426;2023-06-22T07:04:53;36.20;29.70
49731;DHT22;35622;52.008;5.426;2023-06-22T07:07:21;36.10;29.50
49731;DHT22;35622;52.008;5.426;2023-06-22T07:09:46;36.10;29.70
49731;DHT22;35622;52.008;5.426;2023-06-22T07:12:12;36.30;29.70
49731;DHT22;35622;52.008;5.426;2023-06-22T07:14:37;36.50;29.30
49731;DHT22;35622;52.008;5.426;2023-06-22T07:17:03;36.80;29.00
49731;DHT22;35622;52.008;5.426;2023-06-22T07:19:29;36.90;28.70
49731;DHT22;35622;52.008;5.426;2023-06-22T07:21:55;37.20;28.90
49731;DHT22;35622;52.008;5.426;2023-06-22T07:24:22;37.80;28.30
49731;DHT22;35622;52.008;5.426;2023-06-22T07:26:48;38.50;27.40
49731;DHT22;35622;52.008;5.426;2023-06-22T07:29:18;39.10;26.60
49731;DHT22;35622;52.008;5.426;2023-06-22T07:31:45;39.40;26.30
49731;DHT22;35622;52.008;5.426;2023-06-22T07:34:11;39.50;26.00
49731;DHT22;35622;52.008;5.426;2023-06-22T07:36:36;40.40;25.70
49731;DHT22;35622;52.008;5.426;2023-06-22T07:39:03;41.50;24.90
49731;DHT22;35622;52.008;5.426;2023-06-22T07:41:29;42.00;23.40
49731;DHT22;35622;52.008;5.426;2023-06-22T07:43:55;42.60;23.00
49731;DHT22;35622;52.008;5.426;2023-06-22T07:46:21;43.10;22.50
49731;DHT22;35622;52.008;5.426;2023-06-22T07:48:46;43.10;21.90
49731;DHT22;35622;52.008;5.426;2023-06-22T07:51:12;42.70;22.00
49731;DHT22;35622;52.008;5.426;2023-06-22T07:53:39;43.00;22.20
49731;DHT22;35622;52.008;5.426;2023-06-22T07:56:05;43.30;22.20
49731;DHT22;35622;52.008;5.426;2023-06-22T07:58:32;43.50;21.70
49731;DHT22;35622;52.008;5.426;2023-06-22T08:00:58;43.70;21.60
49731;DHT22;35622;52.008;5.426;2023-06-22T08:03:24;43.70;20.90
49731;DHT22;35622;52.008;5.426;2023-06-22T08:05:49;43.50;21.00
49731;DHT22;35622;52.008;5.426;2023-06-22T08:08:15;43.90;20.90
49731;DHT22;35622;52.008;5.426;2023-06-22T08:10:42;44.00;20.70
49731;DHT22;35622;52.008;5.426;2023-06-22T08:13:08;43.30;20.70
49731;DHT22;35622;52.008;5.426;2023-06-22T08:15:34;42.80;21.50
49731;DHT22;35622;52.008;5.426;2023-06-22T08:17:59;43.50;21.50
49731;DHT22;35622;52.008;5.426;2023-06-22T08:20:26;44.00;21.30
49731;DHT22;35622;52.008;5.426;2023-06-22T08:22:53;44.80;20.60
49731;DHT22;35622;52.008;5.426;2023-06-22T08:25:19;44.80;19.60
49731;DHT22;35622;52.008;5.426;2023-06-22T08:27:46;44.60;20.00
49731;DHT22;35622;52.008;5.426;2023-06-22T08:30:13;44.40;20.10
49731;DHT22;35622;52.008;5.426;2023-06-22T08:32:38;43.90;20.30
49731;DHT22;35622;52.008;5.426;2023-06-22T08:35:04;44.00;20.30
49731;DHT22;35622;52.008;5.426;2023-06-22T08:37:32;44.00;20.00
49731;DHT22;35622;52.008;5.426;2023-06-22T08:40:01;43.30;20.10
49731;DHT22;35622;52.008;5.426;2023-06-22T08:42:28;43.10;20.50
49731;DHT22;35622;52.008;5.426;2023-06-22T08:44:54;43.30;20.50
49731;DHT22;35622;52.008;5.426;2023-06-22T08:47:19;43.00;20.60
49731;DHT22;35622;52.008;5.426;2023-06-22T08:49:47;42.50;20.70
49731;DHT22;35622;52.008;5.426;2023-06-22T08:52:13;41.80;21.20
49731;DHT22;35622;52.008;5.426;2023-06-22T08:54:38;40.90;21.70
49731;DHT22;35622;52.008;5.426;2023-06-22T08:57:04;40.10;22.80
49731;DHT22;35622;52.008;5.426;2023-06-22T08:59:30;39.50;23.00
49731;DHT22;35622;52.008;5.426;2023-06-22T09:01:56;38.80;23.60
49731;DHT22;35622;52.008;5.426;2023-06-22T09:04:22;38.30;24.10
49731;DHT22;35622;52.008;5.426;2023-06-22T09:06:48;37.80;24.60
49731;DHT22;35622;52.008;5.426;2023-06-22T09:09:15;37.30;25.30
49731;DHT22;35622;52.008;5.426;2023-06-22T09:11:42;36.90;25.70
49731;DHT22;35622;52.008;5.426;2023-06-22T09:14:08;36.70;26.30
49731;DHT22;35622;52.008;5.426;2023-06-22T09:16:34;36.60;26.30
49731;DHT22;35622;52.008;5.426;2023-06-22T09:18:59;36.30;26.50
49731;DHT22;35622;52.008;5.426;2023-06-22T09:21:25;36.00;26.80
49731;DHT22;35622;52.008;5.426;2023-06-22T09:23:51;35.80;27.00
49731;DHT22;35622;52.008;5.426;2023-06-22T09:26:20;35.70;27.30
49731;DHT22;35622;52.008;5.426;2023-06-22T09:28:46;35.80;26.90
49731;DHT22;35622;52.008;5.426;2023-06-22T09:31:11;35.70;27.30
49731;DHT22;35622;52.008;5.426;2023-06-22T09:33:37;35.60;27.60
49731;DHT22;35622;52.008;5.426;2023-06-22T09:36:06;35.60;27.70
49731;DHT22;35622;52.008;5.426;2023-06-22T09:38:38;35.40;27.50
49731;DHT22;35622;52.008;5.426;2023-06-22T09:41:04;34.80;27.40
49731;DHT22;35622;52.008;5.426;2023-06-22T09:43:32;34.30;27.70
49731;DHT22;35622;52.008;5.426;2023-06-22T09:46:00;34.00;28.20
49731;DHT22;35622;52.008;5.426;2023-06-22T09:48:27;33.60;28.10
49731;DHT22;35622;52.008;5.426;2023-06-22T09:50:52;33.40;28.80
49731;DHT22;35622;52.008;5.426;2023-06-22T09:53:18;33.20;29.00
49731;DHT22;35622;52.008;5.426;2023-06-22T09:55:43;33.00;29.00
49731;DHT22;35622;52.008;5.426;2023-06-22T09:58:09;32.70;28.90
49731;DHT22;35622;52.008;5.426;2023-06-22T10:00:35;32.40;29.10
49731;DHT22;35622;52.008;5.426;2023-06-22T10:03:00;32.20;29.60
49731;DHT22;35622;52.008;5.426;2023-06-22T10:05:26;31.90;30.10
49731;DHT22;35622;52.008;5.426;2023-06-22T10:07:52;31.70;30.70
49731;DHT22;35622;52.008;5.426;2023-06-22T10:10:17;31.50;31.10
49731;DHT22;35622;52.008;5.426;2023-06-22T10:12:47;31.30;31.30
49731;DHT22;35622;52.008;5.426;2023-06-22T10:15:13;31.10;31.70
49731;DHT22;35622;52.008;5.426;2023-06-22T10:17:39;31.00;32.00
49731;DHT22;35622;52.008;5.426;2023-06-22T10:20:06;30.80;32.50
49731;DHT22;35622;52.008;5.426;2023-06-22T10:22:44;30.70;32.80
49731;DHT22;35622;52.008;5.426;2023-06-22T10:25:12;30.60;33.00
49731;DHT22;35622;52.008;5.426;2023-06-22T10:27:48;30.70;33.10
49731;DHT22;35622;52.008;5.426;2023-06-22T10:30:14;30.60;33.10
49731;DHT22;35622;52.008;5.426;2023-06-22T10:32:41;30.60;33.10
49731;DHT22;35622;52.008;5.426;2023-06-22T10:35:08;30.60;33.60
49731;DHT22;35622;52.008;5.426;2023-06-22T10:37:36;30.60;33.70
49731;DHT22;35622;52.008;5.426;2023-06-22T10:40:02;30.50;33.80
49731;DHT22;35622;52.008;5.426;2023-06-22T10:42:29;30.60;33.90
49731;DHT22;35622;52.008;5.426;2023-06-22T10:44:54;30.70;33.80
49731;DHT22;35622;52.008;5.426;2023-06-22T10:47:20;30.70;33.90
49731;DHT22;35622;52.008;5.426;2023-06-22T10:49:48;30.80;34.10
49731;DHT22;35622;52.008;5.426;2023-06-22T10:52:17;30.90;34.10
49731;DHT22;35622;52.008;5.426;2023-06-22T10:54:42;31.10;34.20
49731;DHT22;35622;52.008;5.426;2023-06-22T10:57:08;31.20;34.10
49731;DHT22;35622;52.008;5.426;2023-06-22T10:59:33;31.30;34.00
49731;DHT22;35622;52.008;5.426;2023-06-22T11:01:59;31.40;33.40
49731;DHT22;35622;52.008;5.426;2023-06-22T11:04:25;31.40;33.70
49731;DHT22;35622;52.008;5.426;2023-06-22T11:06:51;31.40;33.90
49731;DHT22;35622;52.008;5.426;2023-06-22T11:09:17;31.40;33.90
49731;DHT22;35622;52.008;5.426;2023-06-22T11:11:46;31.50;34.00
49731;DHT22;35622;52.008;5.426;2023-06-22T11:14:12;31.50;34.00
49731;DHT22;35622;52.008;5.426;2023-06-22T11:16:38;31.70;34.10
49731;DHT22;35622;52.008;5.426;2023-06-22T11:19:05;31.80;33.90
49731;DHT22;35622;52.008;5.426;2023-06-22T11:21:31;32.00;33.70
49731;DHT22;35622;52.008;5.426;2023-06-22T11:23:57;32.00;33.60
49731;DHT22;35622;52.008;5.426;2023-06-22T11:26:22;32.00;33.30
49731;DHT22;35622;52.008;5.426;2023-06-22T11:28:48;32.00;33.20
49731;DHT22;35622;52.008;5.426;2023-06-22T11:31:14;32.00;33.30
49731;DHT22;35622;52.008;5.426;2023-06-22T11:33:40;32.00;33.40
49731;DHT22;35622;52.008;5.426;2023-06-22T11:36:06;32.00;33.20
49731;DHT22;35622;52.008;5.426;2023-06-22T11:38:31;32.00;33.10
49731;DHT22;35622;52.008;5.426;2023-06-22T11:40:58;31.90;33.30
49731;DHT22;35622;52.008;5.426;2023-06-22T11:43:24;31.80;33.20
49731;DHT22;35622;52.008;5.426;2023-06-22T11:45:49;31.80;33.30
49731;DHT22;35622;52.008;5.426;2023-06-22T11:48:16;31.70;33.30
49731;DHT22;35622;52.008;5.426;2023-06-22T11:50:41;31.70;33.70
49731;DHT22;35622;52.008;5.426;2023-06-22T11:53:07;31.70;34.00
49731;DHT22;35622;52.008;5.426;2023-06-22T11:55:32;31.70;34.20
49731;DHT22;35622;52.008;5.426;2023-06-22T11:57:58;31.50;34.30
49731;DHT22;35622;52.008;5.426;2023-06-22T12:00:29;31.30;35.30
49731;DHT22;35622;52.008;5.426;2023-06-22T12:02:55;30.80;37.30
49731;DHT22;35622;52.008;5.426;2023-06-22T12:05:21;30.60;38.70
49731;DHT22;35622;52.008;5.426;2023-06-22T12:07:48;30.50;39.30
49731;DHT22;35622;52.008;5.426;2023-06-22T12:10:14;30.40;40.00
49731;DHT22;35622;52.008;5.426;2023-06-22T12:12:40;30.30;40.70
49731;DHT22;35622;52.008;5.426;2023-06-22T12:15:06;30.20;40.60
49731;DHT22;35622;52.008;5.426;2023-06-22T12:17:33;29.90;40.20
49731;DHT22;35622;52.008;5.426;2023-06-22T12:19:58;29.70;40.60
49731;DHT22;35622;52.008;5.426;2023-06-22T12:22:24;29.40;41.20
49731;DHT22;35622;52.008;5.426;2023-06-22T12:24:50;28.90;42.70
49731;DHT22;35622;52.008;5.426;2023-06-22T12:27:16;28.40;44.40
49731;DHT22;35622;52.008;5.426;2023-06-22T12:29:45;28.10;46.40
49731;DHT22;35622;52.008;5.426;2023-06-22T12:32:10;27.80;47.60
49731;DHT22;35622;52.008;5.426;2023-06-22T12:34:38;27.60;48.20
49731;DHT22;35622;52.008;5.426;2023-06-22T12:37:04;27.40;48.30
49731;DHT22;35622;52.008;5.426;2023-06-22T12:39:31;27.30;49.00
49731;DHT22;35622;52.008;5.426;2023-06-22T12:41:56;27.30;49.70
49731;DHT22;35622;52.008;5.426;2023-06-22T12:44:22;27.20;50.30
49731;DHT22;35622;52.008;5.426;2023-06-22T12:46:48;27.20;50.50
49731;DHT22;35622;52.008;5.426;2023-06-22T12:49:13;27.20;50.90
49731;DHT22;35622;52.008;5.426;2023-06-22T12:51:43;27.30;51.20
49731;DHT22;35622;52.008;5.426;2023-06-22T12:54:09;27.40;51.50
49731;DHT22;35622;52.008;5.426;2023-06-22T12:56:35;27.40;51.70
49731;DHT22;35622;52.008;5.426;2023-06-22T12:59:01;27.40;52.10
49731;DHT22;35622;52.008;5.426;2023-06-22T13:01:36;27.50;52.30
49731;DHT22;35622;52.008;5.426;2023-06-22T13:04:03;27.50;52.60
49731;DHT22;35622;52.008;5.426;2023-06-22T13:06:28;27.50;52.60
49731;DHT22;35622;52.008;5.426;2023-06-22T13:09:03;27.50;52.90
49731;DHT22;35622;52.008;5.426;2023-06-22T13:11:30;27.40;52.90
49731;DHT22;35622;52.008;5.426;2023-06-22T13:13:56;27.40;53.10
49731;DHT22;35622;52.008;5.426;2023-06-22T13:16:21;27.30;53.20
49731;DHT22;35622;52.008;5.426;2023-06-22T13:18:47;27.40;53.30
49731;DHT22;35622;52.008;5.426;2023-06-22T13:21:12;27.40;53.40
49731;DHT22;35622;52.008;5.426;2023-06-22T13:23:39;27.40;53.80
49731;DHT22;35622;52.008;5.426;2023-06-22T13:26:05;27.40;54.00
49731;DHT22;35622;52.008;5.426;2023-06-22T13:28:30;27.50;54.20
49731;DHT22;35622;52.008;5.426;2023-06-22T13:31:06;27.50;54.20
49731;DHT22;35622;52.008;5.426;2023-06-22T13:33:32;27.50;54.10
49731;DHT22;35622;52.008;5.426;2023-06-22T13:35:57;27.50;54.10
49731;DHT22;35622;52.008;5.426;2023-06-22T13:38:23;27.60;54.20
49731;DHT22;35622;52.008;5.426;2023-06-22T13:40:49;27.70;54.40
49731;DHT22;35622;52.008;5.426;2023-06-22T13:43:15;27.80;54.50
49731;DHT22;35622;52.008;5.426;2023-06-22T13:45:41;27.90;54.50
49731;DHT22;35622;52.008;5.426;2023-06-22T13:48:07;27.80;54.20
49731;DHT22;35622;52.008;5.426;2023-06-22T13:50:33;27.90;54.30
49731;DHT22;35622;52.008;5.426;2023-06-22T13:52:59;27.90;54.30
49731;DHT22;35622;52.008;5.426;2023-06-22T13:55:24;27.80;54.10
49731;DHT22;35622;52.008;5.426;2023-06-22T13:57:50;27.80;54.30
49731;DHT22;35622;52.008;5.426;2023-06-22T14:00:17;27.70;54.50
49731;DHT22;35622;52.008;5.426;2023-06-22T14:02:42;27.70;55.00
49731;DHT22;35622;52.008;5.426;2023-06-22T14:05:08;27.70;55.40
49731;DHT22;35622;52.008;5.426;2023-06-22T14:07:34;27.70;55.60
49731;DHT22;35622;52.008;5.426;2023-06-22T14:10:00;27.60;55.70
49731;DHT22;35622;52.008;5.426;2023-06-22T14:12:26;27.60;55.90
49731;DHT22;35622;52.008;5.426;2023-06-22T14:14:51;27.60;56.10
49731;DHT22;35622;52.008;5.426;2023-06-22T14:17:17;27.50;56.30
49731;DHT22;35622;52.008;5.426;2023-06-22T14:19:49;27.50;56.70
49731;DHT22;35622;52.008;5.426;2023-06-22T14:22:14;27.60;57.00
49731;DHT22;35622;52.008;5.426;2023-06-22T14:24:40;27.60;57.00
49731;DHT22;35622;52.008;5.426;2023-06-22T14:27:05;27.60;57.10
49731;DHT22;35622;52.008;5.426;2023-06-22T14:29:34;27.60;57.10
49731;DHT22;35622;52.008;5.426;2023-06-22T14:31:59;27.50;57.20
49731;DHT22;35622;52.008;5.426;2023-06-22T14:34:25;27.40;57.40
49731;DHT22;35622;52.008;5.426;2023-06-22T14:36:50;27.40;57.50
49731;DHT22;35622;52.008;5.426;2023-06-22T14:39:16;27.30;57.60
49731;DHT22;35622;52.008;5.426;2023-06-22T14:41:41;27.20;57.60
49731;DHT22;35622;52.008;5.426;2023-06-22T14:44:07;27.20;57.70
49731;DHT22;35622;52.008;5.426;2023-06-22T14:46:32;27.20;57.90
49731;DHT22;35622;52.008;5.426;2023-06-22T14:48:58;27.20;58.00
49731;DHT22;35622;52.008;5.426;2023-06-22T14:51:23;27.20;58.10
49731;DHT22;35622;52.008;5.426;2023-06-22T14:53:49;27.20;58.20
49731;DHT22;35622;52.008;5.426;2023-06-22T14:56:15;27.20;58.20
49731;DHT22;35622;52.008;5.426;2023-06-22T14:58:41;27.10;58.30
49731;DHT22;35622;52.008;5.426;2023-06-22T15:01:10;27.00;58.40
49731;DHT22;35622;52.008;5.426;2023-06-22T15:03:36;26.90;58.70
49731;DHT22;35622;52.008;5.426;2023-06-22T15:06:02;26.80;59.00
49731;DHT22;35622;52.008;5.426;2023-06-22T15:08:28;26.70;59.20
49731;DHT22;35622;52.008;5.426;2023-06-22T15:10:54;26.60;59.40
49731;DHT22;35622;52.008;5.426;2023-06-22T15:13:21;26.50;59.50
49731;DHT22;35622;52.008;5.426;2023-06-22T15:15:48;26.30;59.50
49731;DHT22;35622;52.008;5.426;2023-06-22T15:18:18;26.20;59.50
49731;DHT22;35622;52.008;5.426;2023-06-22T15:20:43;26.00;59.40
49731;DHT22;35622;52.008;5.426;2023-06-22T15:23:11;25.80;59.80
49731;DHT22;35622;52.008;5.426;2023-06-22T15:25:37;25.60;60.20
49731;DHT22;35622;52.008;5.426;2023-06-22T15:28:03;25.50;60.60
49731;DHT22;35622;52.008;5.426;2023-06-22T15:30:28;25.50;60.70